Time;durP1;ratioP1;P1;durP2;ratioP2;P2;SDS_P1;SDS_P2;PMS_P1;PMS_P2;Temp;Humidity;BMP_temperature;BMP_pressure;BME280_temperature;BME280_humidity;BME280_pressure;Samples;Min_cycle;Max_cycle;Signal;HPM_P1;HPM_P2
2024/01/19 00:00:38;;;;;;;;;;;0.60;99.90;;;;;;4949460;28;20372;-65
2024/01/19 00:03:04;;;;;;;;;;;0.60;99.90;;;;;;4960264;28;19925;-64
2024/01/19 00:05:30;;;;;;;;;;;0.50;99.90;;;;;;4944225;28;21047;-65
2024/01/19 00:07:56;;;;;;;;;;;0.50;99.90;;;;;;4954898;28;19925;-66
2024/01/19 00:10:22;;;;;;;;;;;0.50;99.90;;;;;;4930151;28;19972;-65
2024/01/19 00:12:48;;;;;;;;;;;0.60;99.90;;;;;;4938612;28;19925;-65
2024/01/19 00:15:14;;;;;;;;;;;0.60;99.90;;;;;;4941530;28;21040;-65
2024/01/19 00:17:40;;;;;;;;;;;0.60;99.90;;;;;;4965904;28;19925;-63
2024/01/19 00:20:09;;;;;;;;;;;0.60;99.90;;;;;;4940747;28;20389;-65
2024/01/19 00:22:35;;;;;;;;;;;0.50;99.90;;;;;;4966765;28;19939;-64
2024/01/19 00:25:01;;;;;;;;;;;0.50;99.90;;;;;;4946331;28;19929;-64
2024/01/19 00:27:27;;;;;;;;;;;0.40;99.90;;;;;;4944896;28;19955;-63
2024/01/19 00:29:52;;;;;;;;;;;0.40;99.90;;;;;;4936468;28;19936;-64
2024/01/19 00:32:18;;;;;;;;;;;0.30;99.90;;;;;;4970247;28;19929;-64
2024/01/19 00:34:44;;;;;;;;;;;0.40;99.90;;;;;;4942209;28;19925;-65
2024/01/19 00:37:10;;;;;;;;;;;0.40;99.90;;;;;;4973518;28;19930;-64
2024/01/19 00:39:36;;;;;;;;;;;0.40;99.90;;;;;;4930849;28;19925;-64
2024/01/19 00:42:02;;;;;;;;;;;0.40;99.90;;;;;;4960748;28;19932;-64
2024/01/19 00:44:28;;;;;;;;;;;0.40;99.90;;;;;;4938775;28;19947;-64
2024/01/19 00:46:54;;;;;;;;;;;0.40;99.90;;;;;;4962791;28;19987;-65
2024/01/19 00:49:20;;;;;;;;;;;0.30;99.90;;;;;;4931454;28;20956;-65
2024/01/19 00:51:46;;;;;;;;;;;0.40;99.90;;;;;;4959669;28;19926;-64
2024/01/19 00:54:13;;;;;;;;;;;0.40;99.90;;;;;;4934526;28;20911;-65
2024/01/19 00:56:39;;;;;;;;;;;0.50;99.90;;;;;;4961235;28;19925;-65
2024/01/19 00:59:05;;;;;;;;;;;0.50;99.90;;;;;;4934755;28;19932;-64
2024/01/19 01:01:31;;;;;;;;;;;0.60;99.90;;;;;;4981916;28;20458;-64
2024/01/19 01:03:58;;;;;;;;;;;0.60;99.90;;;;;;4934597;28;19929;-65
2024/01/19 01:06:25;;;;;;;;;;;0.60;99.90;;;;;;4947454;28;19929;-64
2024/01/19 01:08:51;;;;;;;;;;;0.60;99.90;;;;;;4964218;28;21050;-65
2024/01/19 01:11:16;;;;;;;;;;;0.60;99.90;;;;;;4956990;28;19926;-65
2024/01/19 01:13:42;;;;;;;;;;;0.60;99.90;;;;;;4958505;28;19925;-64
2024/01/19 01:16:08;;;;;;;;;;;0.60;99.90;;;;;;4926853;28;21164;-64
2024/01/19 01:18:34;;;;;;;;;;;0.50;99.90;;;;;;4940911;28;20004;-64
2024/01/19 01:21:01;;;;;;;;;;;0.40;99.90;;;;;;4923248;28;20011;-64
2024/01/19 01:23:27;;;;;;;;;;;0.40;99.90;;;;;;4940721;28;19964;-64
2024/01/19 01:25:53;;;;;;;;;;;0.30;99.90;;;;;;4905798;28;20055;-64
2024/01/19 01:28:19;;;;;;;;;;;0.20;99.90;;;;;;4939902;28;19929;-65
2024/01/19 01:30:45;;;;;;;;;;;0.10;99.90;;;;;;4906871;28;19929;-65
2024/01/19 01:33:11;;;;;;;;;;;0.10;99.90;;;;;;4939539;28;19930;-64
2024/01/19 01:35:37;;;;;;;;;;;0.10;99.90;;;;;;4923585;28;19928;-64
2024/01/19 01:38:03;;;;;;;;;;;0.00;99.90;;;;;;4964259;28;19925;-64
2024/01/19 01:40:29;;;;;;;;;;;0.00;99.90;;;;;;4910682;28;20439;-65
2024/01/19 01:43:00;;;;;;;;;;;0.00;99.90;;;;;;4942821;28;19933;-64
2024/01/19 01:45:26;;;;;;;;;;;0.00;99.90;;;;;;4928309;28;19933;-64
2024/01/19 01:47:53;;;;;;;;;;;0.00;99.90;;;;;;4940667;28;19933;-64
2024/01/19 01:50:19;;;;;;;;;;;0.00;99.90;;;;;;4928315;28;21053;-65
2024/01/19 01:52:45;;;;;;;;;;;0.00;99.90;;;;;;4945006;28;21052;-63
2024/01/19 01:55:12;;;;;;;;;;;-0.10;99.90;;;;;;4913450;28;19929;-64
2024/01/19 01:57:39;;;;;;;;;;;-0.10;99.90;;;;;;4959613;28;20389;-64
2024/01/19 02:00:06;;;;;;;;;;;0.00;99.90;;;;;;4930094;28;20011;-64
2024/01/19 02:02:36;;;;;;;;;;;0.00;99.90;;;;;;4966141;28;20419;-64
2024/01/19 02:05:02;;;;;;;;;;;0.00;99.90;;;;;;4934068;28;19930;-64
2024/01/19 02:07:28;;;;;;;;;;;-0.10;99.90;;;;;;4935682;28;19930;-64
2024/01/19 02:09:53;;;;;;;;;;;-0.10;99.90;;;;;;4917134;28;20360;-63
2024/01/19 02:12:21;;;;;;;;;;;0.00;99.90;;;;;;4951173;28;19932;-64
2024/01/19 02:14:47;;;;;;;;;;;-0.10;99.90;;;;;;4921734;28;19925;-63
2024/01/19 02:17:13;;;;;;;;;;;-0.10;99.90;;;;;;4965870;28;19932;-64
2024/01/19 02:19:39;;;;;;;;;;;-0.10;99.90;;;;;;4936185;28;19925;-64
2024/01/19 02:22:05;;;;;;;;;;;-0.10;99.90;;;;;;4967595;28;19925;-65
2024/01/19 02:24:32;;;;;;;;;;;-0.10;99.90;;;;;;4930924;28;20256;-65
2024/01/19 02:26:59;;;;;;;;;;;-0.10;99.90;;;;;;4968203;28;19929;-66
2024/01/19 02:29:24;;;;;;;;;;;-0.10;99.90;;;;;;4928907;28;19925;-64
2024/01/19 02:31:51;;;;;;;;;;;-0.10;99.90;;;;;;4952748;28;20955;-65
2024/01/19 02:34:17;;;;;;;;;;;-0.10;99.90;;;;;;4913991;28;19936;-64
2024/01/19 02:36:42;;;;;;;;;;;-0.10;99.90;;;;;;4956943;28;19925;-65
2024/01/19 02:39:09;;;;;;;;;;;-0.10;99.90;;;;;;4914969;28;19999;-64
2024/01/19 02:41:35;;;;;;;;;;;0.00;99.90;;;;;;4959099;28;19930;-63
2024/01/19 02:44:01;;;;;;;;;;;0.00;99.90;;;;;;4911631;28;19933;-64
2024/01/19 02:46:27;;;;;;;;;;;0.20;99.90;;;;;;4956461;28;20516;-65
2024/01/19 02:48:52;;;;;;;;;;;0.20;99.90;;;;;;4924798;28;20609;-65
2024/01/19 02:51:18;;;;;;;;;;;0.30;99.90;;;;;;4947858;28;21011;-65
2024/01/19 02:53:44;;;;;;;;;;;0.30;99.90;;;;;;4938900;28;19933;-66
2024/01/19 02:56:10;;;;;;;;;;;0.50;99.90;;;;;;4932625;28;20528;-65
2024/01/19 02:58:36;;;;;;;;;;;0.50;99.90;;;;;;4940198;28;19925;-64
2024/01/19 03:01:02;;;;;;;;;;;0.60;99.90;;;;;;4906440;28;19925;-62
2024/01/19 03:03:28;;;;;;;;;;;0.50;99.90;;;;;;4938035;28;19930;-64
2024/01/19 03:05:54;;;;;;;;;;;0.60;99.90;;;;;;4930124;28;19933;-65
2024/01/19 03:08:21;;;;;;;;;;;0.50;99.90;;;;;;4933930;28;19930;-64
2024/01/19 03:10:47;;;;;;;;;;;0.50;99.90;;;;;;4928796;28;19932;-65
2024/01/19 03:13:13;;;;;;;;;;;0.50;99.90;;;;;;4940824;28;19926;-65
2024/01/19 03:15:38;;;;;;;;;;;0.50;99.90;;;;;;4927973;28;19925;-65
2024/01/19 03:18:04;;;;;;;;;;;0.50;99.90;;;;;;4942434;28;21063;-67
2024/01/19 03:20:30;;;;;;;;;;;0.50;99.90;;;;;;4902244;28;19930;-66
2024/01/19 03:22:56;;;;;;;;;;;0.50;99.90;;;;;;4941096;28;19941;-66
2024/01/19 03:25:22;;;;;;;;;;;0.60;99.90;;;;;;4917845;28;19940;-66
2024/01/19 03:27:48;;;;;;;;;;;0.70;99.90;;;;;;4941875;28;19929;-66
2024/01/19 03:30:15;;;;;;;;;;;0.60;99.90;;;;;;4919904;28;19929;-66
2024/01/19 03:32:41;;;;;;;;;;;0.60;99.90;;;;;;4963304;28;20136;-64
2024/01/19 03:35:07;;;;;;;;;;;0.60;99.90;;;;;;4930309;28;19952;-66
2024/01/19 03:37:33;;;;;;;;;;;0.60;99.90;;;;;;4964555;28;19925;-67
2024/01/19 03:39:59;;;;;;;;;;;0.60;99.90;;;;;;4937404;28;19925;-66
2024/01/19 03:42:28;;;;;;;;;;;0.50;99.90;;;;;;4965333;28;19929;-66
2024/01/19 03:44:55;;;;;;;;;;;0.50;99.90;;;;;;4941596;28;19928;-65
2024/01/19 03:47:21;;;;;;;;;;;0.60;99.90;;;;;;4968242;28;19936;-66
2024/01/19 03:49:47;;;;;;;;;;;0.40;99.90;;;;;;4930920;28;20232;-65
2024/01/19 03:52:13;;;;;;;;;;;0.40;99.90;;;;;;4969251;28;20953;-67
2024/01/19 03:54:39;;;;;;;;;;;0.40;99.90;;;;;;4938109;28;20030;-66
2024/01/19 03:57:06;;;;;;;;;;;0.30;99.90;;;;;;4970776;28;19956;-66
2024/01/19 03:59:32;;;;;;;;;;;0.20;99.90;;;;;;4930040;28;19925;-66
2024/01/19 04:01:58;;;;;;;;;;;0.10;99.90;;;;;;4957394;28;20533;-67
2024/01/19 04:04:25;;;;;;;;;;;0.00;99.90;;;;;;4930582;28;19937;-67
2024/01/19 04:06:52;;;;;;;;;;;0.00;99.90;;;;;;4957884;28;20515;-67
2024/01/19 04:09:18;;;;;;;;;;;-0.10;99.90;;;;;;4931444;28;19932;-68
2024/01/19 04:11:44;;;;;;;;;;;-0.10;99.90;;;;;;4947328;28;19937;-67
2024/01/19 04:14:10;;;;;;;;;;;-0.10;99.90;;;;;;4929511;28;19934;-68
2024/01/19 04:16:37;;;;;;;;;;;0.00;99.90;;;;;;4962622;28;19921;-67
2024/01/19 04:19:03;;;;;;;;;;;-0.10;99.90;;;;;;4932126;28;20643;-67
2024/01/19 04:21:30;;;;;;;;;;;-0.20;99.90;;;;;;4979477;28;21085;-67
2024/01/19 04:23:58;;;;;;;;;;;-0.20;99.90;;;;;;4930179;28;19937;-68
2024/01/19 04:26:25;;;;;;;;;;;-0.30;99.90;;;;;;4982500;28;19934;-67
2024/01/19 04:28:51;;;;;;;;;;;-0.30;99.90;;;;;;4945866;28;19929;-67
2024/01/19 04:31:17;;;;;;;;;;;-0.30;99.90;;;;;;4922594;28;19930;-67
2024/01/19 04:33:42;;;;;;;;;;;-0.40;99.90;;;;;;4956108;28;19964;-68
2024/01/19 04:36:09;;;;;;;;;;;-0.50;99.90;;;;;;4932922;28;19936;-67
2024/01/19 04:38:35;;;;;;;;;;;-0.50;99.90;;;;;;4975427;28;21140;-67
2024/01/19 04:41:01;;;;;;;;;;;-0.60;99.90;;;;;;4951548;28;19925;-66
2024/01/19 04:43:27;;;;;;;;;;;-0.60;99.90;;;;;;4958127;28;20530;-67
2024/01/19 04:45:53;;;;;;;;;;;-0.70;99.90;;;;;;4928322;28;19980;-67
2024/01/19 04:48:18;;;;;;;;;;;-0.70;99.90;;;;;;4955378;28;19937;-66
2024/01/19 04:50:44;;;;;;;;;;;-0.80;99.90;;;;;;4929649;28;19929;-67
2024/01/19 04:53:10;;;;;;;;;;;-0.90;99.90;;;;;;4955718;28;19925;-67
2024/01/19 04:55:36;;;;;;;;;;;-0.90;99.90;;;;;;4927470;28;19925;-68
2024/01/19 04:58:02;;;;;;;;;;;-1.00;99.90;;;;;;4957243;28;19929;-68
2024/01/19 05:00:28;;;;;;;;;;;-1.00;99.90;;;;;;4946156;28;19924;-68
2024/01/19 05:02:54;;;;;;;;;;;-1.10;99.90;;;;;;4962884;28;21059;-68
2024/01/19 05:05:20;;;;;;;;;;;-1.10;99.90;;;;;;4948320;28;20000;-68
2024/01/19 05:07:46;;;;;;;;;;;-1.10;99.90;;;;;;4940320;28;19931;-68
2024/01/19 05:10:12;;;;;;;;;;;-1.10;99.90;;;;;;4944706;28;21095;-68
2024/01/19 05:12:38;;;;;;;;;;;-1.20;99.90;;;;;;4944679;28;20005;-69
2024/01/19 05:15:04;;;;;;;;;;;-1.20;99.90;;;;;;4912855;28;20554;-67
2024/01/19 05:17:30;;;;;;;;;;;-1.30;99.90;;;;;;4944689;28;19926;-68
2024/01/19 05:19:56;;;;;;;;;;;-1.40;99.90;;;;;;4934759;28;19970;-67
2024/01/19 05:22:22;;;;;;;;;;;-1.40;99.90;;;;;;4966202;28;20407;-68
2024/01/19 05:24:48;;;;;;;;;;;-1.50;99.90;;;;;;4934939;28;19936;-68
2024/01/19 05:27:14;;;;;;;;;;;-1.50;99.90;;;;;;4952451;28;20402;-67
2024/01/19 05:29:41;;;;;;;;;;;-1.50;99.90;;;;;;4929532;28;19929;-68
2024/01/19 05:32:07;;;;;;;;;;;-1.60;99.90;;;;;;4933618;28;19929;-68
2024/01/19 05:34:33;;;;;;;;;;;-1.60;99.90;;;;;;4916269;28;19929;-67
2024/01/19 05:36:58;;;;;;;;;;;-1.60;99.90;;;;;;4957446;28;19925;-67
2024/01/19 05:39:24;;;;;;;;;;;-1.60;99.90;;;;;;4935149;28;19997;-68
2024/01/19 05:41:51;;;;;;;;;;;-1.60;99.90;;;;;;4963861;28;20244;-68
2024/01/19 05:44:17;;;;;;;;;;;-1.60;99.90;;;;;;4934825;28;19936;-67
2024/01/19 05:46:43;;;;;;;;;;;-1.60;99.90;;;;;;4978454;28;19933;-68
2024/01/19 05:49:09;;;;;;;;;;;-1.60;99.90;;;;;;4929759;28;20029;-67
2024/01/19 05:51:35;;;;;;;;;;;-1.60;99.90;;;;;;4949224;28;19930;-67
2024/01/19 05:54:01;;;;;;;;;;;-1.50;99.90;;;;;;4931065;28;19925;-69
2024/01/19 05:56:27;;;;;;;;;;;-1.60;99.90;;;;;;4981176;28;20418;-69
2024/01/19 05:58:53;;;;;;;;;;;-1.60;99.90;;;;;;4945123;28;19926;-68
2024/01/19 06:01:19;;;;;;;;;;;-1.70;99.90;;;;;;4937809;28;19932;-68
2024/01/19 06:03:45;;;;;;;;;;;-1.70;99.90;;;;;;4962541;28;19929;-68
2024/01/19 06:06:11;;;;;;;;;;;-1.60;99.90;;;;;;4916975;28;19929;-68
2024/01/19 06:08:37;;;;;;;;;;;-1.60;99.90;;;;;;4960066;28;19956;-67
2024/01/19 06:11:03;;;;;;;;;;;-1.50;99.90;;;;;;4920023;28;19997;-67
2024/01/19 06:13:29;;;;;;;;;;;-1.50;99.90;;;;;;4958901;28;19937;-68
2024/01/19 06:15:55;;;;;;;;;;;-1.40;99.90;;;;;;4940992;28;20107;-68
2024/01/19 06:18:21;;;;;;;;;;;-1.30;99.90;;;;;;4964138;28;19968;-68
2024/01/19 06:20:47;;;;;;;;;;;-1.20;99.90;;;;;;4929232;28;19931;-68
2024/01/19 06:23:13;;;;;;;;;;;-1.20;99.90;;;;;;4958432;28;20118;-68
2024/01/19 06:25:40;;;;;;;;;;;-1.10;99.90;;;;;;4935153;28;19930;-68
2024/01/19 06:28:06;;;;;;;;;;;-1.00;99.90;;;;;;4954908;28;20534;-68
2024/01/19 06:30:32;;;;;;;;;;;-0.90;99.90;;;;;;4939981;28;20683;-68
2024/01/19 06:32:58;;;;;;;;;;;-0.70;99.90;;;;;;4961017;28;19925;-68
2024/01/19 06:35:24;;;;;;;;;;;-0.50;99.90;;;;;;4940342;28;19931;-67
2024/01/19 06:37:50;;;;;;;;;;;-0.40;99.90;;;;;;4959653;28;20523;-68
2024/01/19 06:40:16;;;;;;;;;;;-0.20;99.90;;;;;;4948711;28;19929;-68
2024/01/19 06:42:45;;;;;;;;;;;-0.20;99.90;;;;;;4969799;28;19925;-69
2024/01/19 06:45:11;;;;;;;;;;;-0.10;99.90;;;;;;4949806;28;19936;-69
2024/01/19 06:47:37;;;;;;;;;;;-0.20;99.90;;;;;;4951660;28;19930;-68
2024/01/19 06:50:03;;;;;;;;;;;-0.20;99.90;;;;;;4929229;28;19929;-69
2024/01/19 06:52:29;;;;;;;;;;;-0.30;99.90;;;;;;4958675;28;19932;-69
2024/01/19 06:54:55;;;;;;;;;;;-0.30;99.90;;;;;;4927596;28;19936;-69
2024/01/19 06:57:21;;;;;;;;;;;-0.40;99.90;;;;;;4959210;28;20551;-68
2024/01/19 06:59:47;;;;;;;;;;;-0.40;99.90;;;;;;4932247;28;20451;-69
2024/01/19 07:02:13;;;;;;;;;;;-0.50;99.90;;;;;;4952920;28;19926;-69
2024/01/19 07:04:39;;;;;;;;;;;-0.60;99.90;;;;;;4948816;28;19925;-69
2024/01/19 07:07:05;;;;;;;;;;;-0.70;99.90;;;;;;4962068;28;21231;-69
2024/01/19 07:09:31;;;;;;;;;;;-0.80;99.90;;;;;;4937119;28;19945;-68
2024/01/19 07:11:57;;;;;;;;;;;-0.90;99.90;;;;;;4974386;28;19925;-68
2024/01/19 07:14:24;;;;;;;;;;;-0.90;99.90;;;;;;4931583;28;19933;-69
2024/01/19 07:16:51;;;;;;;;;;;-1.00;99.90;;;;;;4945950;28;19925;-69
2024/01/19 07:19:17;;;;;;;;;;;-1.00;99.90;;;;;;4934213;28;19925;-69
2024/01/19 07:21:43;;;;;;;;;;;-1.00;99.90;;;;;;4938821;28;19930;-69
2024/01/19 07:24:10;;;;;;;;;;;-1.10;99.90;;;;;;4934195;28;20399;-69
2024/01/19 07:26:36;;;;;;;;;;;-1.10;99.90;;;;;;4962462;28;19933;-70
2024/01/19 07:29:06;;;;;;;;;;;-1.10;99.90;;;;;;4913829;28;20727;-70
2024/01/19 07:31:32;;;;;;;;;;;-1.10;99.90;;;;;;4980953;28;19925;-70
2024/01/19 07:33:58;;;;;;;;;;;-1.00;99.90;;;;;;4929618;28;20479;-69
2024/01/19 07:36:24;;;;;;;;;;;-1.00;99.90;;;;;;4980155;28;19940;-68
2024/01/19 07:38:50;;;;;;;;;;;-1.00;99.90;;;;;;4958782;28;20412;-70
2024/01/19 07:41:16;;;;;;;;;;;-0.90;99.90;;;;;;4932462;28;19931;-70
2024/01/19 07:43:41;;;;;;;;;;;-0.90;99.90;;;;;;4976465;28;19964;-70
2024/01/19 07:46:07;;;;;;;;;;;-0.80;99.90;;;;;;4933158;28;19930;-69
2024/01/19 07:48:33;;;;;;;;;;;-0.70;99.90;;;;;;4960854;28;19932;-69
2024/01/19 07:50:59;;;;;;;;;;;-0.60;99.90;;;;;;4956300;28;19935;-69
2024/01/19 07:53:25;;;;;;;;;;;-0.60;99.90;;;;;;4962752;28;20200;-69
2024/01/19 07:55:51;;;;;;;;;;;-0.50;99.90;;;;;;4958214;28;19925;-71
2024/01/19 07:58:17;;;;;;;;;;;-0.40;99.90;;;;;;4966684;28;19961;-69
2024/01/19 08:00:43;;;;;;;;;;;-0.40;99.90;;;;;;4935171;28;19925;-70
2024/01/19 08:03:09;;;;;;;;;;;-0.30;99.90;;;;;;4959340;28;19929;-70
2024/01/19 08:05:35;;;;;;;;;;;-0.30;99.90;;;;;;4943226;28;21001;-70
2024/01/19 08:08:01;;;;;;;;;;;-0.20;99.90;;;;;;4960199;28;19930;-69
2024/01/19 08:10:28;;;;;;;;;;;-0.20;99.90;;;;;;4950696;28;19964;-69
2024/01/19 08:12:54;;;;;;;;;;;-0.20;99.90;;;;;;4966880;28;20696;-70
2024/01/19 08:15:20;;;;;;;;;;;-0.20;99.90;;;;;;4934053;28;21035;-69
2024/01/19 08:17:46;;;;;;;;;;;-0.20;99.90;;;;;;4980293;28;19925;-69
2024/01/19 08:20:12;;;;;;;;;;;-0.20;99.90;;;;;;4935425;28;19937;-69
2024/01/19 08:22:38;;;;;;;;;;;-0.20;99.90;;;;;;4966424;28;19925;-69
2024/01/19 08:25:04;;;;;;;;;;;-0.30;99.90;;;;;;4942722;28;19931;-70
2024/01/19 08:27:30;;;;;;;;;;;-0.30;99.90;;;;;;4968487;28;20480;-70
2024/01/19 08:29:56;;;;;;;;;;;-0.30;99.90;;;;;;4940587;28;19936;-70
2024/01/19 08:32:23;;;;;;;;;;;-0.30;99.90;;;;;;4961821;28;19985;-70
2024/01/19 08:34:49;;;;;;;;;;;-0.30;99.90;;;;;;4926283;28;19932;-68
2024/01/19 08:37:15;;;;;;;;;;;-0.30;99.90;;;;;;4964256;28;19932;-68
2024/01/19 08:39:41;;;;;;;;;;;-0.20;99.90;;;;;;4940529;28;20446;-69
2024/01/19 08:42:07;;;;;;;;;;;-0.20;99.90;;;;;;4965177;28;19965;-71
2024/01/19 08:44:33;;;;;;;;;;;-0.10;99.90;;;;;;4933249;28;19936;-69
2024/01/19 08:46:58;;;;;;;;;;;-0.20;99.90;;;;;;4970252;28;19929;-68
2024/01/19 08:49:24;;;;;;;;;;;-0.20;99.90;;;;;;4933530;28;19933;-69
2024/01/19 08:51:51;;;;;;;;;;;-0.20;99.90;;;;;;4968119;28;19965;-68
2024/01/19 08:54:17;;;;;;;;;;;-0.10;99.90;;;;;;4933037;28;19932;-69
2024/01/19 08:56:43;;;;;;;;;;;-0.10;99.90;;;;;;4953182;28;20600;-69
2024/01/19 08:59:09;;;;;;;;;;;-0.10;99.90;;;;;;4937641;28;19953;-69
2024/01/19 09:01:35;;;;;;;;;;;-0.10;99.90;;;;;;4985199;28;20623;-69
2024/01/19 09:04:01;;;;;;;;;;;0.00;99.90;;;;;;4953622;28;20518;-70
2024/01/19 09:06:27;;;;;;;;;;;0.00;99.90;;;;;;4983404;28;20980;-68
2024/01/19 09:08:53;;;;;;;;;;;0.10;99.90;;;;;;4946381;28;19929;-68
2024/01/19 09:11:19;;;;;;;;;;;0.10;99.90;;;;;;4953815;28;19925;-69
2024/01/19 09:13:45;;;;;;;;;;;0.00;99.90;;;;;;4962993;28;20877;-68
2024/01/19 09:16:11;;;;;;;;;;;0.10;99.90;;;;;;4952780;28;20000;-68
2024/01/19 09:18:37;;;;;;;;;;;0.10;99.90;;;;;;4963504;28;20415;-68
2024/01/19 09:21:03;;;;;;;;;;;0.20;99.90;;;;;;4956130;28;19925;-69
2024/01/19 09:23:29;;;;;;;;;;;0.20;99.90;;;;;;4961406;28;19952;-68
2024/01/19 09:25:55;;;;;;;;;;;0.30;99.90;;;;;;4954564;28;19933;-70
2024/01/19 09:28:21;;;;;;;;;;;0.20;99.90;;;;;;4955938;28;19932;-70
2024/01/19 09:30:47;;;;;;;;;;;0.20;99.90;;;;;;4937546;28;19948;-71
2024/01/19 09:33:14;;;;;;;;;;;0.30;99.90;;;;;;4958352;28;19925;-71
2024/01/19 09:35:40;;;;;;;;;;;0.20;99.90;;;;;;4963955;28;19925;-72
2024/01/19 09:38:06;;;;;;;;;;;0.30;99.90;;;;;;4967953;28;20798;-74
2024/01/19 09:40:32;;;;;;;;;;;0.30;99.90;;;;;;4953690;28;19940;-71
2024/01/19 09:42:59;;;;;;;;;;;0.40;99.90;;;;;;4965054;28;20636;-71
2024/01/19 09:45:34;;;;;;;;;;;0.30;99.90;;;;;;4942063;28;21073;-71
2024/01/19 09:48:23;;;;;;;;;;;0.30;99.90;;;;;;4960192;28;19925;-71
2024/01/19 09:50:53;;;;;;;;;;;0.40;99.90;;;;;;4929065;28;19940;-71
2024/01/19 09:53:26;;;;;;;;;;;0.40;99.90;;;;;;4961123;28;19925;-71
2024/01/19 09:55:53;;;;;;;;;;;0.40;99.90;;;;;;4922916;28;19980;-71
2024/01/19 09:58:20;;;;;;;;;;;0.40;99.90;;;;;;4961581;28;20973;-73
2024/01/19 10:00:48;;;;;;;;;;;0.50;99.90;;;;;;4934293;28;19925;-73
2024/01/19 10:03:16;;;;;;;;;;;0.50;99.90;;;;;;4961116;28;19925;-72
2024/01/19 10:05:42;;;;;;;;;;;0.60;99.90;;;;;;4924385;28;19929;-72
2024/01/19 10:08:11;;;;;;;;;;;0.60;99.90;;;;;;4962055;28;19944;-73
2024/01/19 10:10:40;;;;;;;;;;;0.60;99.90;;;;;;4941367;28;19998;-73
2024/01/19 10:13:05;;;;;;;;;;;0.70;99.90;;;;;;4964490;28;19925;-73
2024/01/19 10:15:32;;;;;;;;;;;0.70;99.90;;;;;;4940150;28;19925;-72
2024/01/19 10:17:59;;;;;;;;;;;0.70;99.90;;;;;;4964351;28;19936;-74
2024/01/19 10:20:25;;;;;;;;;;;0.80;99.90;;;;;;4926655;28;20005;-72
2024/01/19 10:22:51;;;;;;;;;;;0.90;99.90;;;;;;4961107;28;19932;-72
2024/01/19 10:25:18;;;;;;;;;;;1.00;99.90;;;;;;4917375;28;19984;-72
2024/01/19 10:27:47;;;;;;;;;;;1.00;99.90;;;;;;4957195;28;20435;-72
2024/01/19 10:30:25;;;;;;;;;;;1.10;99.90;;;;;;4937501;28;19925;-72
2024/01/19 10:32:52;;;;;;;;;;;1.10;99.90;;;;;;4964613;28;20488;-72
2024/01/19 10:35:19;;;;;;;;;;;1.30;99.90;;;;;;4946798;28;20368;-73
2024/01/19 10:37:46;;;;;;;;;;;1.30;99.90;;;;;;4963648;28;20926;-72
2024/01/19 10:40:16;;;;;;;;;;;1.40;99.90;;;;;;4941836;28;20836;-74
2024/01/19 10:42:42;;;;;;;;;;;1.40;99.90;;;;;;4980827;28;19933;-73
2024/01/19 10:45:28;;;;;;;;;;;1.40;99.90;;;;;;4923764;28;19949;-73
2024/01/19 10:47:55;;;;;;;;;;;1.50;99.90;;;;;;4952920;28;19930;-74
2024/01/19 10:50:26;;;;;;;;;;;1.50;99.90;;;;;;4939636;28;19932;-75
2024/01/19 10:52:52;;;;;;;;;;;1.60;99.90;;;;;;4959502;28;19937;-73
2024/01/19 10:55:20;;;;;;;;;;;1.60;99.90;;;;;;4924049;28;20090;-74
2024/01/19 10:57:48;;;;;;;;;;;1.60;99.90;;;;;;4961991;28;20948;-74
2024/01/19 11:00:24;;;;;;;;;;;1.80;99.90;;;;;;4946399;28;19925;-75
2024/01/19 11:02:57;;;;;;;;;;;1.80;99.90;;;;;;4968032;28;19925;-74
2024/01/19 11:05:24;;;;;;;;;;;1.90;99.90;;;;;;4950075;28;19925;-74
2024/01/19 11:08:00;;;;;;;;;;;2.00;99.90;;;;;;4960016;28;19925;-74
2024/01/19 11:10:27;;;;;;;;;;;2.10;99.90;;;;;;4935076;28;21168;-74
2024/01/19 11:12:56;;;;;;;;;;;2.10;99.90;;;;;;4955113;28;19925;-74
2024/01/19 11:15:40;;;;;;;;;;;2.20;99.90;;;;;;4938980;28;19970;-73
2024/01/19 11:18:06;;;;;;;;;;;2.30;99.90;;;;;;4961929;28;20946;-74
2024/01/19 11:20:33;;;;;;;;;;;2.30;99.90;;;;;;4935397;28;19925;-75
2024/01/19 11:23:00;;;;;;;;;;;2.40;99.90;;;;;;4963670;28;19925;-75
2024/01/19 11:25:26;;;;;;;;;;;2.50;99.90;;;;;;4928650;28;19961;-76
2024/01/19 11:27:57;;;;;;;;;;;2.50;99.90;;;;;;4939618;28;20909;-76
2024/01/19 11:30:27;;;;;;;;;;;2.60;99.90;;;;;;4940123;28;19929;-76
2024/01/19 11:32:53;;;;;;;;;;;2.70;99.90;;;;;;4964173;28;19925;-76
2024/01/19 11:35:38;;;;;;;;;;;2.80;99.90;;;;;;4948580;28;19925;-77
2024/01/19 11:38:05;;;;;;;;;;;2.90;99.90;;;;;;4966029;28;20666;-78
2024/01/19 11:40:32;;;;;;;;;;;3.00;99.90;;;;;;4937386;28;21011;-79
2024/01/19 11:42:58;;;;;;;;;;;3.10;99.90;;;;;;4964598;28;19926;-79
2024/01/19 11:45:26;;;;;;;;;;;3.10;99.90;;;;;;4949685;28;19929;-79
2024/01/19 11:47:52;;;;;;;;;;;3.20;99.90;;;;;;4949641;28;19925;-80
2024/01/19 11:50:38;;;;;;;;;;;3.20;99.90;;;;;;4938362;28;20422;-83
2024/01/19 11:53:04;;;;;;;;;;;3.40;99.90;;;;;;4970319;28;19925;-82
2024/01/19 11:55:30;;;;;;;;;;;3.40;99.90;;;;;;4948912;28;20163;-81
2024/01/19 11:57:56;;;;;;;;;;;3.50;99.90;;;;;;4970818;28;19926;-79
2024/01/19 12:00:22;;;;;;;;;;;3.50;99.90;;;;;;4929831;28;19971;-82
2024/01/19 12:02:48;;;;;;;;;;;3.50;99.90;;;;;;4950486;28;19929;-82
2024/01/19 12:05:20;;;;;;;;;;;3.60;99.90;;;;;;4936439;28;19925;-80
2024/01/19 12:07:46;;;;;;;;;;;3.60;99.90;;;;;;4956948;28;20498;-82
2024/01/19 12:10:16;;;;;;;;;;;3.60;99.90;;;;;;4957908;28;20415;-81
2024/01/19 12:12:42;;;;;;;;;;;3.70;99.90;;;;;;4965634;28;19925;-82
2024/01/19 12:15:09;;;;;;;;;;;3.70;99.90;;;;;;4920623;28;19956;-81
2024/01/19 12:17:42;;;;;;;;;;;3.80;99.90;;;;;;4945925;28;19936;-82
2024/01/19 12:20:16;;;;;;;;;;;3.80;99.90;;;;;;4946509;28;20305;-81
2024/01/19 12:22:42;;;;;;;;;;;3.80;99.90;;;;;;4956124;28;19933;-81
2024/01/19 12:25:15;;;;;;;;;;;3.90;99.90;;;;;;4933378;28;19936;-81
2024/01/19 12:27:41;;;;;;;;;;;4.50;99.90;;;;;;4963672;28;20231;-82
2024/01/19 12:30:11;;;;;;;;;;;6.40;99.90;;;;;;4935152;28;20510;-82
2024/01/19 12:32:37;;;;;;;;;;;7.60;99.90;;;;;;4966365;28;20901;-82
2024/01/19 12:35:03;;;;;;;;;;;8.10;99.90;;;;;;4937869;28;19932;-79
2024/01/19 12:37:29;;;;;;;;;;;8.60;99.90;;;;;;4976620;28;19925;-81
2024/01/19 12:40:14;;;;;;;;;;;9.10;99.90;;;;;;4946445;28;19929;-81
2024/01/19 12:42:44;;;;;;;;;;;9.30;99.90;;;;;;4981150;28;19932;-80
2024/01/19 12:45:13;;;;;;;;;;;9.40;99.90;;;;;;4950084;28;20319;-81
2024/01/19 12:47:42;;;;;;;;;;;9.40;99.90;;;;;;4968917;28;20005;-80
2024/01/19 12:50:08;;;;;;;;;;;9.50;99.90;;;;;;4941541;28;20497;-82
2024/01/19 12:52:34;;;;;;;;;;;9.90;99.90;;;;;;4960936;28;19926;-81
2024/01/19 12:55:00;;;;;;;;;;;10.00;99.90;;;;;;4907543;28;20919;-80
2024/01/19 12:57:26;;;;;;;;;;;9.80;99.90;;;;;;4967371;28;19929;-80
2024/01/19 13:00:11;;;;;;;;;;;9.60;99.90;;;;;;4942830;28;19937;-81
2024/01/19 13:02:40;;;;;;;;;;;9.50;99.90;;;;;;4971385;28;19941;-80
2024/01/19 13:05:17;;;;;;;;;;;10.00;99.90;;;;;;4943985;28;19932;-81
2024/01/19 13:07:43;;;;;;;;;;;10.20;99.90;;;;;;4952240;28;20052;-81
2024/01/19 13:10:09;;;;;;;;;;;10.40;99.90;;;;;;4944029;28;21017;-79
2024/01/19 13:12:36;;;;;;;;;;;10.40;99.90;;;;;;4977717;28;19996;-79
2024/01/19 13:15:05;;;;;;;;;;;9.90;99.90;;;;;;4941476;28;19929;-79
2024/01/19 13:17:31;;;;;;;;;;;9.80;99.90;;;;;;4987258;28;19926;-78
2024/01/19 13:19:57;;;;;;;;;;;9.60;99.90;;;;;;4941623;28;19955;-79
2024/01/19 13:22:23;;;;;;;;;;;9.50;99.90;;;;;;4972459;28;19940;-78
2024/01/19 13:24:52;;;;;;;;;;;9.80;99.90;;;;;;4944079;28;20005;-80
2024/01/19 13:27:18;;;;;;;;;;;9.70;99.90;;;;;;4971526;28;19944;-78
2024/01/19 13:29:44;;;;;;;;;;;9.70;99.90;;;;;;4945634;28;19924;-79
2024/01/19 13:32:13;;;;;;;;;;;9.80;99.90;;;;;;4980144;28;20552;-78
2024/01/19 13:34:39;;;;;;;;;;;9.80;99.90;;;;;;4942553;28;19924;-79
2024/01/19 13:37:05;;;;;;;;;;;9.90;99.90;;;;;;4967712;28;20963;-79
2024/01/19 13:39:31;;;;;;;;;;;10.20;99.90;;;;;;4944133;28;19925;-76
2024/01/19 13:41:57;;;;;;;;;;;10.40;99.30;;;;;;4968159;28;19955;-76
2024/01/19 13:44:24;;;;;;;;;;;10.20;99.10;;;;;;4935496;28;19926;-76
2024/01/19 13:46:50;;;;;;;;;;;10.30;99.50;;;;;;4949062;28;19930;-75
2024/01/19 13:49:16;;;;;;;;;;;10.20;99.30;;;;;;4933944;28;21317;-76
2024/01/19 13:51:42;;;;;;;;;;;10.10;99.70;;;;;;4948891;28;19936;-75
2024/01/19 13:54:08;;;;;;;;;;;9.50;99.90;;;;;;4934763;28;19925;-75
2024/01/19 13:56:33;;;;;;;;;;;9.80;99.90;;;;;;4965869;28;21003;-75
2024/01/19 13:58:59;;;;;;;;;;;10.30;99.70;;;;;;4933323;28;19952;-75
2024/01/19 14:01:25;;;;;;;;;;;10.60;99.10;;;;;;4985112;28;19932;-76
2024/01/19 14:03:53;;;;;;;;;;;10.40;98.70;;;;;;4951918;28;19932;-76
2024/01/19 14:06:19;;;;;;;;;;;10.80;98.60;;;;;;4935996;28;19934;-77
2024/01/19 14:08:45;;;;;;;;;;;10.60;99.80;;;;;;4961360;28;20488;-76
2024/01/19 14:11:13;;;;;;;;;;;10.40;98.20;;;;;;4916334;28;19925;-76
2024/01/19 14:13:40;;;;;;;;;;;10.00;98.70;;;;;;4962397;28;19929;-75
2024/01/19 14:16:06;;;;;;;;;;;10.00;99.00;;;;;;4916387;28;19925;-77
2024/01/19 14:18:31;;;;;;;;;;;10.20;99.10;;;;;;4961341;28;20532;-75
2024/01/19 14:20:57;;;;;;;;;;;10.10;99.10;;;;;;4951049;28;19994;-75